Time;durP1;ratioP1;P1;durP2;ratioP2;P2;SDS_P1;SDS_P2;PMS_P1;PMS_P2;Temp;Humidity;BMP_temperature;BMP_pressure;BME280_temperature;BME280_humidity;BME280_pressure;Samples;Min_cycle;Max_cycle;Signal;HPM_P1;HPM_P2
2023/08/30 00:00:01;;;;;;;3.92;3.53;;;14.80;99.90;;;-141.84;88.45;20088.22;5028584;28;20210;-64
2023/08/30 00:02:29;;;;;;;3.60;3.30;;;14.80;99.90;;;-141.84;88.15;20114.63;5018766;28;20205;-60
2023/08/30 00:05:00;;;;;;;3.35;3.13;;;14.80;99.90;;;-141.84;88.01;20084.16;5022115;28;20786;-63
2023/08/30 00:07:28;;;;;;;4.45;3.90;;;14.80;99.90;;;-141.84;87.78;20092.28;5031176;28;20276;-62
2023/08/30 00:09:57;;;;;;;5.35;3.53;;;14.90;99.90;;;-141.84;87.63;20143.09;5042051;28;20260;-63
2023/08/30 00:12:25;;;;;;;3.78;3.40;;;14.90;99.90;;;-141.84;87.67;20122.78;5041907;28;20244;-63
2023/08/30 00:14:54;;;;;;;4.13;3.80;;;14.90;99.90;;;-141.84;87.75;20122.78;5037845;28;20283;-63
2023/08/30 00:17:24;;;;;;;3.80;3.50;;;14.90;99.90;;;-141.84;87.90;20141.06;5039886;28;20225;-62
2023/08/30 00:19:52;;;;;;;3.58;3.28;;;14.90;99.90;;;-141.84;88.42;20141.06;5022419;28;20720;-64
2023/08/30 00:22:23;;;;;;;3.95;3.63;;;14.90;99.90;;;-141.84;88.59;20110.56;5022214;28;20305;-64
2023/08/30 00:24:51;;;;;;;4.50;4.10;;;14.80;99.90;;;-141.84;88.93;20086.19;5030880;28;20332;-63
2023/08/30 00:27:20;;;;;;;3.95;3.65;;;14.80;99.90;;;-141.84;89.36;20078.06;5023408;28;20278;-64
2023/08/30 00:29:48;;;;;;;4.13;3.83;;;14.80;99.90;;;-141.84;89.61;20082.13;5022647;28;20269;-63
2023/08/30 00:32:16;;;;;;;4.30;3.90;;;14.70;99.90;;;-141.84;89.75;20065.84;5022591;28;20644;-63
2023/08/30 00:34:46;;;;;;;4.00;3.70;;;14.70;99.90;;;-141.84;90.09;20053.66;5014794;28;20770;-65
2023/08/30 00:37:14;;;;;;;3.90;3.50;;;14.60;99.90;;;-141.84;90.32;20043.50;5021535;28;20316;-63
2023/08/30 00:39:42;;;;;;;5.38;4.10;;;14.60;99.90;;;-141.84;90.60;20021.16;5023358;28;20253;-63
2023/08/30 00:42:11;;;;;;;4.43;4.03;;;14.60;99.90;;;-141.84;90.77;20061.78;5025838;28;20316;-62
2023/08/30 00:44:40;;;;;;;4.15;3.85;;;14.60;99.90;;;-141.84;90.92;20100.41;5018568;28;20237;-62
2023/08/30 00:47:09;;;;;;;4.28;3.88;;;14.70;99.90;;;-141.84;90.92;20065.84;5025671;28;20677;-64
2023/08/30 00:49:37;;;;;;;5.22;4.10;;;14.60;99.90;;;-141.84;90.75;20061.78;5026049;28;20230;-64
2023/08/30 00:52:10;;;;;;;4.25;3.80;;;14.60;99.90;;;-141.84;90.53;20074.00;5025927;28;20270;-63
2023/08/30 00:54:40;;;;;;;4.20;3.80;;;14.70;99.90;;;-141.84;90.80;20049.59;5025798;28;20313;-64
2023/08/30 00:57:09;;;;;;;4.90;4.50;;;14.60;99.90;;;-141.84;90.69;20092.28;5005950;28;20241;-63
2023/08/30 00:59:38;;;;;;;4.60;4.13;;;14.70;99.90;;;-141.84;90.39;20063.81;5006715;28;20293;-64
2023/08/30 01:02:06;;;;;;;4.60;4.20;;;14.70;99.90;;;-141.84;90.29;20051.63;5006241;28;20230;-65
2023/08/30 01:04:35;;;;;;;4.82;4.07;;;14.70;99.90;;;-141.84;90.53;20092.28;5014576;28;20635;-62
2023/08/30 01:07:03;;;;;;;4.13;3.83;;;14.60;99.90;;;-141.84;90.37;20067.88;5025373;28;20291;-64
2023/08/30 01:09:33;;;;;;;4.55;3.67;;;14.60;99.90;;;-141.84;90.36;20086.19;5025221;28;20269;-64
2023/08/30 01:12:11;;;;;;;4.20;3.90;;;14.60;99.90;;;-141.84;90.30;20065.84;5025150;28;20256;-63
2023/08/30 01:14:46;;;;;;;4.53;4.13;;;14.60;99.90;;;-141.84;90.48;20059.75;5013477;28;20200;-63
2023/08/30 01:17:17;;;;;;;5.85;4.45;;;14.60;99.90;;;-141.84;90.05;20045.53;5023264;28;20328;-63
2023/08/30 01:20:00;;;;;;;4.38;3.85;;;14.60;99.90;;;-141.84;89.27;20102.44;5005870;28;20314;-63
2023/08/30 01:22:44;;;;;;;4.47;4.07;;;14.70;99.90;;;-141.84;88.22;20143.09;5016269;28;20744;-63
2023/08/30 01:25:33;;;;;;;5.22;3.58;;;14.80;99.90;;;-141.84;88.70;20076.03;5044771;28;20308;-64
2023/08/30 01:28:07;;;;;;;4.10;3.70;;;14.70;99.90;;;-141.84;89.18;20094.31;5044739;28;20224;-63
2023/08/30 01:30:42;;;;;;;4.82;3.92;;;14.70;99.90;;;-141.84;89.57;20088.22;5037595;28;20236;-62
2023/08/30 01:33:14;;;;;;;5.28;3.75;;;14.70;99.90;;;-141.84;89.96;20057.72;5045290;28;20688;-64
2023/08/30 01:35:43;;;;;;;4.90;3.65;;;14.70;99.90;;;-141.84;89.87;20118.69;5042891;28;20491;-63
2023/08/30 01:38:12;;;;;;;3.83;3.50;;;14.70;99.90;;;-141.84;90.21;20122.78;5024543;28;20321;-63
2023/08/30 01:40:45;;;;;;;4.32;3.85;;;14.70;99.90;;;-141.84;90.36;20074.00;5016943;28;20218;-63
2023/08/30 01:43:16;;;;;;;6.25;3.45;;;14.70;99.90;;;-141.84;90.41;20084.16;5024346;28;20245;-63
2023/08/30 01:45:45;;;;;;;4.38;3.53;;;14.70;99.90;;;-141.84;90.62;20051.63;5008642;28;20375;-63
2023/08/30 01:48:17;;;;;;;3.95;3.50;;;14.60;99.90;;;-141.84;90.64;20035.38;5024864;28;20287;-63
2023/08/30 01:50:46;;;;;;;3.42;3.13;;;14.60;99.90;;;-141.84;90.85;20031.31;5016465;28;20262;-63
2023/08/30 01:53:16;;;;;;;3.97;3.50;;;14.60;99.90;;;-141.84;90.82;20045.53;5011759;28;20310;-64
2023/08/30 01:55:44;;;;;;;3.63;3.08;;;14.50;99.90;;;-141.84;90.83;20051.63;5044415;28;20233;-63
2023/08/30 01:58:14;;;;;;;4.18;3.78;;;14.60;99.90;;;-141.84;91.10;20027.25;5044174;28;20326;-63
2023/08/30 02:00:43;;;;;;;6.18;4.30;;;14.50;99.90;;;-141.84;91.12;20082.13;5036399;28;20304;-63
2023/08/30 02:03:12;;;;;;;4.85;4.32;;;14.50;99.90;;;-141.84;91.33;20045.53;5044806;28;20237;-63
2023/08/30 02:05:56;;;;;;;5.60;5.10;;;14.50;99.90;;;-141.84;91.15;20051.63;5045024;28;20292;-64
2023/08/30 02:08:36;;;;;;;5.28;4.78;;;14.50;99.90;;;-141.84;91.27;20019.13;5044366;28;20311;-64
2023/08/30 02:11:12;;;;;;;5.32;4.93;;;14.40;99.90;;;-141.84;91.42;20015.03;5043756;28;20719;-63
2023/08/30 02:13:45;;;;;;;6.07;4.60;;;14.60;99.90;;;-141.84;91.32;20047.56;5020818;28;20226;-63
2023/08/30 02:16:15;;;;;;;6.10;5.55;;;14.50;99.90;;;-141.84;91.04;20039.44;5004735;28;20230;-64
2023/08/30 02:18:44;;;;;;;6.20;5.35;;;14.40;99.90;;;-141.84;89.91;20090.25;4996515;28;20234;-64
2023/08/30 02:21:13;;;;;;;5.78;5.18;;;14.50;99.90;;;-141.84;89.99;20053.66;5008237;28;20325;-63
2023/08/30 02:23:41;;;;;;;5.55;5.15;;;14.50;99.90;;;-141.84;90.09;20031.31;5031940;28;20213;-63
2023/08/30 02:26:09;;;;;;;5.63;5.00;;;14.50;99.90;;;-141.84;90.23;20045.53;5044022;28;20324;-63
2023/08/30 02:28:38;;;;;;;4.95;4.32;;;14.50;99.90;;;-141.84;90.26;20023.19;5035698;28;20556;-63
2023/08/30 02:31:08;;;;;;;8.27;4.60;;;14.50;99.90;;;-141.84;90.39;20041.47;5043269;28;20776;-62
2023/08/30 02:33:37;;;;;;;7.90;5.15;;;14.50;99.90;;;-141.84;90.51;20013.00;5044099;28;20227;-64
2023/08/30 02:36:06;;;;;;;5.53;4.97;;;14.50;99.90;;;-141.84;90.37;20057.72;5038217;28;20257;-63
2023/08/30 02:38:34;;;;;;;5.00;4.57;;;14.50;99.90;;;-141.84;89.87;20078.06;5016553;28;20225;-64
2023/08/30 02:41:02;;;;;;;6.80;5.32;;;14.50;99.90;;;-141.84;90.16;20041.47;5024338;28;20233;-63
2023/08/30 02:43:30;;;;;;;5.93;5.43;;;14.50;99.90;;;-141.84;90.17;20043.50;5023341;28;20284;-63
2023/08/30 02:46:01;;;;;;;6.63;5.05;;;14.50;99.90;;;-141.84;90.10;20025.22;5023440;28;20341;-64
2023/08/30 02:48:30;;;;;;;5.57;5.07;;;14.40;99.90;;;-141.84;89.87;20043.50;5019968;28;20261;-60
2023/08/30 02:50:58;;;;;;;6.30;5.20;;;14.40;99.90;;;-141.84;89.68;20027.25;5024025;28;20358;-63
2023/08/30 02:53:27;;;;;;;5.80;5.20;;;14.40;99.90;;;-141.84;89.72;20051.63;5029840;28;20307;-64
2023/08/30 02:55:56;;;;;;;5.10;4.63;;;14.40;99.90;;;-141.84;89.73;20037.41;5043708;28;20705;-63
2023/08/30 02:58:24;;;;;;;9.52;5.53;;;14.40;99.90;;;-141.84;90.07;20025.22;5044208;28;20751;-64
2023/08/30 03:00:53;;;;;;;6.18;5.57;;;14.30;99.90;;;-141.84;89.98;19986.59;5037074;28;20221;-63
2023/08/30 03:03:21;;;;;;;6.43;5.80;;;14.30;99.90;;;-141.84;90.48;20017.09;5044535;28;20237;-63
2023/08/30 03:05:51;;;;;;;6.30;5.70;;;14.20;99.90;;;-141.84;90.71;19980.50;5044703;28;20584;-64
2023/08/30 03:08:19;;;;;;;7.28;6.07;;;14.20;99.90;;;-141.84;90.98;20000.81;5043022;28;20229;-63
2023/08/30 03:10:47;;;;;;;6.03;5.45;;;14.20;99.90;;;-141.84;90.48;19976.44;5035113;28;20571;-64
2023/08/30 03:13:15;;;;;;;6.88;5.78;;;14.20;99.90;;;-141.84;90.62;20021.16;5043304;28;20217;-64
2023/08/30 03:15:43;;;;;;;7.05;6.32;;;14.20;99.90;;;-141.84;90.87;19988.63;5023107;28;20305;-64
2023/08/30 03:18:12;;;;;;;7.25;6.55;;;14.20;99.90;;;-141.84;91.15;20029.28;5022820;28;20241;-63
2023/08/30 03:20:40;;;;;;;6.72;6.05;;;14.20;99.90;;;-141.84;91.15;20017.09;5015993;28;20198;-63
2023/08/30 03:23:10;;;;;;;6.25;5.65;;;14.20;99.90;;;-141.84;90.14;20037.41;5025848;28;20704;-63
2023/08/30 03:25:38;;;;;;;7.40;6.50;;;14.20;99.90;;;-141.84;89.80;20047.56;5042642;28;20303;-64
2023/08/30 03:28:06;;;;;;;6.57;6.07;;;14.20;99.90;;;-141.84;89.41;20057.72;5032058;28;20328;-63
2023/08/30 03:30:35;;;;;;;6.38;5.78;;;14.30;99.90;;;-141.84;88.62;20039.44;5014500;28;20251;-63
2023/08/30 03:33:04;;;;;;;7.60;5.82;;;14.20;99.90;;;-141.84;88.39;20029.28;5000049;28;20301;-62
2023/08/30 03:35:35;;;;;;;6.88;6.25;;;14.30;99.90;;;-141.84;88.56;20041.47;4985343;28;20294;-63
2023/08/30 03:38:04;;;;;;;8.30;6.00;;;14.30;99.90;;;-141.84;88.72;20029.28;5001708;28;20235;-64
2023/08/30 03:40:33;;;;;;;7.60;6.05;;;14.20;99.90;;;-141.84;89.33;19988.63;5012789;28;20655;-63
2023/08/30 03:43:03;;;;;;;7.22;6.53;;;14.20;99.90;;;-141.84;89.72;19998.78;5042748;28;20320;-63
2023/08/30 03:45:35;;;;;;;7.07;6.47;;;14.20;99.90;;;-141.84;90.10;19988.63;5018371;28;20296;-64
2023/08/30 03:48:05;;;;;;;7.60;6.55;;;14.20;99.90;;;-141.84;90.59;20013.00;5004577;28;20221;-63
2023/08/30 03:50:33;;;;;;;9.02;6.32;;;14.20;99.90;;;-141.84;90.75;20010.97;5035277;28;20240;-62
2023/08/30 03:53:01;;;;;;;7.72;7.00;;;14.20;99.90;;;-141.84;89.99;20015.03;5042272;28;20225;-63
2023/08/30 03:55:31;;;;;;;7.75;5.65;;;14.20;99.90;;;-141.84;88.69;20039.44;5042164;28;20782;-63
2023/08/30 03:58:00;;;;;;;7.25;6.55;;;14.20;99.90;;;-141.84;88.82;20037.41;5042819;28;20259;-64
2023/08/30 04:00:28;;;;;;;7.40;6.70;;;14.20;99.90;;;-141.84;88.91;20019.13;5039174;28;20229;-64
2023/08/30 04:02:57;;;;;;;7.60;6.88;;;14.20;99.90;;;-141.84;89.37;20002.84;5042289;28;20292;-64
2023/08/30 04:05:25;;;;;;;7.03;6.32;;;14.10;99.90;;;-141.84;89.29;20065.84;5042873;28;20209;-63
2023/08/30 04:07:56;;;;;;;6.97;6.28;;;14.10;99.90;;;-141.84;88.76;20010.97;5042306;28;20371;-64
2023/08/30 04:10:24;;;;;;;7.18;6.53;;;14.10;99.90;;;-141.84;88.35;20021.16;5039046;28;20311;-63
2023/08/30 04:12:52;;;;;;;9.07;6.78;;;14.10;99.90;;;-141.84;88.17;20031.31;5015194;28;20276;-63
2023/08/30 04:15:22;;;;;;;7.18;6.55;;;14.10;99.90;;;-141.84;87.99;20025.22;5044953;28;20312;-63
2023/08/30 04:17:50;;;;;;;6.68;6.07;;;14.00;99.90;;;-141.84;87.56;20037.41;5042238;28;20208;-62
2023/08/30 04:20:18;;;;;;;9.45;6.32;;;14.00;99.90;;;-141.84;88.03;19980.50;5028935;28;20393;-64
2023/08/30 04:22:46;;;;;;;7.15;6.55;;;14.00;99.90;;;-141.84;88.54;19986.59;5020970;28;20230;-63
2023/08/30 04:25:14;;;;;;;9.18;6.93;;;13.90;99.90;;;-141.84;88.97;19984.56;5028904;28;20655;-62
2023/08/30 04:27:43;;;;;;;7.53;6.82;;;13.90;99.90;;;-141.84;88.99;19980.50;5029006;28;20319;-63
2023/08/30 04:30:13;;;;;;;7.22;6.57;;;13.90;99.90;;;-141.84;89.27;19986.59;5028903;28;20248;-62
2023/08/30 04:32:42;;;;;;;7.25;6.55;;;13.90;99.90;;;-141.84;89.98;19943.91;5021185;28;20240;-63
2023/08/30 04:35:11;;;;;;;9.55;7.72;;;13.90;99.90;;;-141.84;89.62;19988.63;5028747;28;20237;-62
2023/08/30 04:37:39;;;;;;;7.65;6.97;;;13.90;99.90;;;-141.84;89.62;19980.50;5029029;28;20308;-62
2023/08/30 04:40:10;;;;;;;7.57;6.75;;;13.80;99.90;;;-141.84;90.00;19956.09;5031281;28;20228;-62
2023/08/30 04:42:40;;;;;;;6.88;6.28;;;13.80;99.90;;;-141.84;90.38;19950.00;5021530;28;20249;-64
2023/08/30 04:45:09;;;;;;;7.25;6.65;;;13.80;99.90;;;-141.84;89.72;19988.63;5028823;28;20216;-63
2023/08/30 04:47:38;;;;;;;8.55;7.07;;;13.80;99.90;;;-141.84;89.73;19929.69;5029091;28;20217;-62
2023/08/30 04:50:09;;;;;;;7.38;6.63;;;13.80;99.90;;;-141.84;89.40;19919.53;5048475;28;20751;-64
2023/08/30 04:52:37;;;;;;;8.90;6.70;;;13.80;99.90;;;-141.84;89.87;19947.97;5040490;28;20240;-64
2023/08/30 04:55:07;;;;;;;7.70;6.82;;;13.80;99.90;;;-141.84;90.28;19941.88;5048416;28;20260;-62
2023/08/30 04:57:35;;;;;;;7.30;6.65;;;13.70;99.90;;;-141.84;89.93;19962.19;5048276;28;20516;-62
2023/08/30 05:00:05;;;;;;;7.82;7.03;;;13.70;99.90;;;-141.84;90.18;19925.63;5048936;28;20236;-64
2023/08/30 05:02:33;;;;;;;8.00;7.30;;;13.60;99.90;;;-141.84;89.65;19956.09;5041283;28;20316;-65
2023/08/30 05:05:02;;;;;;;9.50;7.20;;;13.70;99.90;;;-141.84;89.59;19925.63;5048598;28;20233;-63
2023/08/30 05:07:32;;;;;;;7.68;6.97;;;13.60;99.90;;;-141.84;89.87;19952.03;5038611;28;20233;-63
2023/08/30 05:10:00;;;;;;;7.47;6.80;;;13.70;99.90;;;-141.84;89.68;19943.91;5028312;28;20225;-62
2023/08/30 05:12:28;;;;;;;7.20;6.38;;;13.70;99.90;;;-141.84;89.81;19933.75;5025924;28;20306;-62
2023/08/30 05:14:56;;;;;;;9.63;7.30;;;13.50;99.90;;;-141.84;90.32;19964.25;5042184;28;20733;-64
2023/08/30 05:17:25;;;;;;;7.93;7.22;;;13.70;99.90;;;-141.84;90.25;19970.34;5044911;28;20745;-65
2023/08/30 05:19:53;;;;;;;8.20;7.10;;;13.70;99.90;;;-141.84;90.31;19913.44;4976836;28;20647;-63
2023/08/30 05:22:22;;;;;;;7.90;7.10;;;13.80;99.90;;;-141.84;89.09;19990.66;5027965;28;20257;-63
2023/08/30 05:24:51;;;;;;;7.07;6.38;;;13.80;99.90;;;-141.84;88.22;19978.47;5034470;28;20237;-63
2023/08/30 05:27:19;;;;;;;7.75;6.25;;;13.80;99.90;;;-141.84;88.14;19962.19;5024252;28;20314;-63
2023/08/30 05:29:47;;;;;;;7.65;5.95;;;13.80;99.90;;;-141.84;87.14;19984.56;5025559;28;20241;-63
2023/08/30 05:32:16;;;;;;;6.82;5.80;;;13.80;99.90;;;-141.84;87.95;19976.44;5024836;28;20222;-64
2023/08/30 05:34:44;;;;;;;7.90;6.65;;;13.80;99.90;;;-141.84;87.82;19976.44;5017677;28;20222;-63
2023/08/30 05:37:12;;;;;;;6.57;5.97;;;13.80;99.90;;;-141.84;88.01;19945.94;5024994;28;20261;-63
2023/08/30 05:39:40;;;;;;;6.43;5.90;;;13.80;99.90;;;-141.84;88.38;19923.59;5028810;28;20244;-63
2023/08/30 05:42:10;;;;;;;7.18;6.43;;;13.80;99.90;;;-141.84;88.22;19972.38;5045166;28;20201;-63
2023/08/30 05:44:38;;;;;;;6.78;6.07;;;13.80;99.90;;;-141.84;87.55;20008.94;5026214;28;20233;-63
2023/08/30 05:47:06;;;;;;;6.78;6.15;;;13.80;99.90;;;-141.84;87.86;19960.16;5024902;28;20733;-63
2023/08/30 05:49:34;;;;;;;7.28;6.55;;;13.80;99.90;;;-141.84;86.77;20008.94;5024911;28;20317;-63
2023/08/30 05:52:02;;;;;;;7.13;6.43;;;13.80;99.90;;;-141.84;85.73;20037.41;5024204;28;20769;-63
2023/08/30 05:54:31;;;;;;;7.53;6.82;;;13.90;99.90;;;-141.84;85.57;20004.88;5016628;28;20268;-64
2023/08/30 05:56:59;;;;;;;6.97;6.38;;;13.90;99.90;;;-141.84;86.29;20013.00;5024676;28;20595;-62
2023/08/30 05:59:29;;;;;;;9.00;6.70;;;13.90;99.90;;;-141.84;87.28;20004.88;5025121;28;20245;-63
2023/08/30 06:01:57;;;;;;;6.20;5.75;;;14.00;99.90;;;-141.84;87.96;20000.81;5024503;28;20316;-62
2023/08/30 06:04:25;;;;;;;7.28;6.57;;;14.10;99.90;;;-141.84;88.41;19986.59;5024603;28;20257;-62
2023/08/30 06:06:53;;;;;;;8.75;7.95;;;14.10;99.90;;;-141.84;87.29;20061.78;5018690;28;20740;-63
2023/08/30 06:09:21;;;;;;;7.45;6.68;;;14.20;99.90;;;-141.84;84.90;20071.97;5021498;28;20714;-61
2023/08/30 06:11:50;;;;;;;8.70;7.13;;;14.30;99.90;;;-141.84;84.80;20074.00;5025122;28;20268;-61
2023/08/30 06:14:18;;;;;;;8.10;7.15;;;14.50;99.90;;;-141.84;85.01;20147.16;5025356;28;20651;-61
2023/08/30 06:16:47;;;;;;;8.18;7.40;;;14.60;99.90;;;-141.84;83.62;20132.94;5017460;28;20617;-61
2023/08/30 06:19:16;;;;;;;8.10;7.10;;;14.70;99.90;;;-141.84;82.60;20179.69;5024302;28;20261;-61
2023/08/30 06:21:44;;;;;;;6.60;6.00;;;14.80;99.90;;;-141.84;82.42;20177.66;5023227;28;20670;-63
2023/08/30 06:24:13;;;;;;;7.15;6.43;;;15.10;99.90;;;-141.84;82.03;20216.25;5031990;28;20317;-63
2023/08/30 06:26:41;;;;;;;7.22;6.55;;;15.40;99.90;;;-141.84;79.58;20246.75;5016581;28;20773;-62
2023/08/30 06:29:09;;;;;;;8.32;6.68;;;15.60;99.90;;;-141.84;78.16;20260.97;5023687;28;20710;-62
2023/08/30 06:31:39;;;;;;;8.98;7.07;;;15.60;99.90;;;-141.84;77.47;20305.69;5005937;28;20333;-63
2023/08/30 06:34:08;;;;;;;7.85;7.07;;;15.70;99.90;;;-141.84;76.44;20348.38;5001006;28;20234;-64
2023/08/30 06:36:37;;;;;;;7.50;6.18;;;15.90;99.90;;;-141.84;77.05;20338.22;4995704;28;20310;-65
2023/08/30 06:39:05;;;;;;;6.57;5.97;;;16.00;99.90;;;-141.84;77.18;20389.03;5003386;28;20234;-64
2023/08/30 06:41:33;;;;;;;7.63;6.85;;;16.10;99.90;;;-141.84;76.74;20352.44;5008721;28;20263;-64
2023/08/30 06:44:02;;;;;;;6.43;5.93;;;16.20;99.90;;;-141.84;77.21;20397.16;5017338;28;20269;-64
2023/08/30 06:46:30;;;;;;;6.78;6.18;;;16.20;99.90;;;-141.84;76.43;20370.75;4986960;28;20255;-64
2023/08/30 06:48:58;;;;;;;7.45;6.38;;;16.20;99.90;;;-141.84;75.75;20437.81;5003091;28;20802;-64
2023/08/30 06:51:28;;;;;;;6.43;5.82;;;16.30;99.90;;;-141.84;76.17;20364.66;5003931;28;20237;-63
2023/08/30 06:54:00;;;;;;;7.68;6.60;;;16.40;99.90;;;-141.84;76.26;20417.50;5012646;28;20256;-64
2023/08/30 06:56:28;;;;;;;7.05;6.45;;;16.40;99.90;;;-141.84;76.75;20378.88;5041323;28;20210;-63
2023/08/30 06:58:56;;;;;;;6.75;6.05;;;16.30;99.90;;;-141.84;76.03;20409.38;5040048;28;20229;-63
2023/08/30 07:01:24;;;;;;;7.32;6.63;;;16.30;99.90;;;-141.84;75.72;20435.78;5043535;28;20320;-63
2023/08/30 07:03:53;;;;;;;7.22;6.53;;;16.40;99.90;;;-141.84;75.54;20456.13;5043317;28;20278;-62
2023/08/30 07:06:21;;;;;;;6.72;6.13;;;16.30;99.90;;;-141.84;75.89;20431.72;5043181;28;20224;-64
2023/08/30 07:08:51;;;;;;;7.20;5.80;;;16.40;99.90;;;-141.84;76.61;20334.16;5035548;28;20221;-62
2023/08/30 07:11:19;;;;;;;7.57;6.15;;;16.30;99.90;;;-141.84;76.85;20403.25;5043551;28;20221;-63
2023/08/30 07:14:00;;;;;;;7.00;6.30;;;16.40;99.90;;;-141.84;75.74;20407.34;5036100;28;20230;-66
2023/08/30 07:16:28;;;;;;;7.45;6.75;;;16.50;99.90;;;-141.84;74.24;20411.41;5020974;28;20315;-63
2023/08/30 07:18:56;;;;;;;7.00;6.40;;;16.40;99.90;;;-141.84;75.70;20423.59;5022394;28;20284;-64
2023/08/30 07:21:25;;;;;;;5.78;5.18;;;16.50;99.90;;;-141.84;75.91;20405.31;5022333;28;20305;-63
2023/08/30 07:23:54;;;;;;;6.75;6.05;;;16.50;99.90;;;-141.84;75.36;20419.53;5030732;28;20660;-62
2023/08/30 07:26:22;;;;;;;7.13;4.97;;;16.50;99.90;;;-141.84;75.39;20411.41;5043268;28;20288;-63
2023/08/30 07:28:51;;;;;;;6.38;5.78;;;16.60;99.90;;;-141.84;75.47;20437.81;5030738;28;20317;-62
2023/08/30 07:31:19;;;;;;;7.45;5.50;;;16.60;99.90;;;-141.84;74.76;20419.53;5010947;28;20270;-63
2023/08/30 07:33:47;;;;;;;5.35;4.85;;;16.60;99.90;;;-141.84;74.53;20460.19;5003416;28;20465;-61
2023/08/30 07:36:16;;;;;;;4.45;4.05;;;16.70;99.90;;;-141.84;74.10;20486.59;5002497;28;20601;-61
2023/08/30 07:38:44;;;;;;;7.35;5.40;;;16.80;99.90;;;-141.84;73.95;20488.63;4994915;28;20346;-62
2023/08/30 07:41:14;;;;;;;6.65;5.38;;;16.90;99.90;;;-141.84;73.95;20476.44;5004973;28;20258;-61
2023/08/30 07:43:42;;;;;;;6.30;4.72;;;17.00;99.90;;;-141.84;73.22;20561.81;5017559;28;20674;-63
2023/08/30 07:46:10;;;;;;;7.32;5.25;;;17.00;99.90;;;-141.84;72.11;20582.16;5022165;28;20736;-64
2023/08/30 07:48:38;;;;;;;5.82;5.22;;;17.20;99.90;;;-141.84;71.73;20616.69;5007920;28;20230;-64
2023/08/30 07:51:06;;;;;;;4.95;4.50;;;17.20;99.90;;;-141.84;72.33;20561.81;5005459;28;20301;-64
2023/08/30 07:53:35;;;;;;;5.50;5.00;;;17.20;99.90;;;-141.84;72.76;20590.28;5028308;28;20340;-64
2023/08/30 07:56:03;;;;;;;7.18;4.82;;;17.20;99.90;;;-141.84;72.98;20576.03;5041829;28;20316;-64
2023/08/30 07:58:33;;;;;;;5.65;4.70;;;17.20;99.90;;;-141.84;72.71;20602.47;5034228;28;20225;-63
2023/08/30 08:01:01;;;;;;;7.55;4.63;;;17.30;99.90;;;-141.84;71.37;20608.56;5042100;28;20324;-65
2023/08/30 08:03:30;;;;;;;7.25;4.75;;;17.40;99.90;;;-141.84;71.71;20647.19;5042280;28;20271;-65
2023/08/30 08:06:00;;;;;;;5.45;4.60;;;17.40;99.90;;;-141.84;70.71;20673.63;5042261;28;20201;-64
2023/08/30 08:08:28;;;;;;;5.18;4.68;;;17.40;99.90;;;-141.84;70.74;20669.56;5040100;28;20233;-64
2023/08/30 08:10:56;;;;;;;7.47;4.60;;;17.50;99.90;;;-141.84;71.13;20700.03;5042124;28;20235;-63
2023/08/30 08:13:25;;;;;;;6.32;4.13;;;17.50;99.90;;;-141.84;71.36;20641.09;5040108;28;20291;-62
2023/08/30 08:15:57;;;;;;;5.53;3.78;;;17.50;99.90;;;-141.84;69.74;20702.09;5022123;28;20271;-63
2023/08/30 08:18:26;;;;;;;4.30;3.95;;;17.70;99.90;;;-141.84;70.07;20708.19;5021724;28;20234;-63
2023/08/30 08:20:55;;;;;;;5.30;4.57;;;17.70;99.90;;;-141.84;70.22;20712.25;5020655;28;20216;-62
2023/08/30 08:23:23;;;;;;;4.70;4.07;;;17.70;99.90;;;-141.84;70.36;20736.63;5042057;28;20205;-62
2023/08/30 08:25:59;;;;;;;4.70;4.18;;;17.80;99.90;;;-141.84;69.62;20746.81;5031192;28;20257;-64
2023/08/30 08:28:28;;;;;;;4.18;3.80;;;17.90;99.90;;;-141.84;69.76;20793.56;5020444;28;20574;-65
2023/08/30 08:30:57;;;;;;;5.25;4.72;;;18.00;99.90;;;-141.84;69.80;20785.44;5017959;28;20716;-63
2023/08/30 08:33:25;;;;;;;4.25;3.85;;;18.00;99.90;;;-141.84;69.53;20783.41;5028715;28;20768;-64
2023/08/30 08:35:53;;;;;;;3.85;3.20;;;18.10;99.90;;;-141.84;70.08;20777.28;5041013;28;20255;-64
2023/08/30 08:38:22;;;;;;;5.07;3.78;;;18.20;99.90;;;-141.84;68.01;20899.28;5022515;28;20210;-62
2023/08/30 08:40:54;;;;;;;4.13;3.13;;;18.30;99.90;;;-141.84;66.77;20883.00;5027882;28;20237;-60
2023/08/30 08:43:22;;;;;;;2.67;2.47;;;18.30;99.90;;;-141.84;67.52;20868.78;5041661;28;20604;-63
2023/08/30 08:45:51;;;;;;;3.97;3.47;;;18.40;99.90;;;-141.84;66.79;20954.16;4985065;28;20293;-64
2023/08/30 08:48:21;;;;;;;2.83;2.58;;;18.50;99.90;;;-141.84;65.98;20923.66;5021645;28;20252;-65
2023/08/30 08:50:50;;;;;;;3.47;3.17;;;18.50;99.90;;;-141.84;67.31;20887.06;5014702;28;20218;-63
2023/08/30 08:53:19;;;;;;;7.28;3.47;;;18.50;99.90;;;-141.84;67.40;20927.72;5017839;28;20241;-64
2023/08/30 08:55:49;;;;;;;4.53;2.97;;;18.60;99.90;;;-141.84;64.56;20968.38;5018447;28;20218;-64
2023/08/30 08:58:17;;;;;;;3.05;2.75;;;18.70;99.90;;;-141.84;64.06;21017.19;5010893;28;20236;-63
2023/08/30 09:00:46;;;;;;;2.60;2.40;;;18.70;99.90;;;-141.84;64.10;21033.44;5007114;28;20226;-65
2023/08/30 09:03:15;;;;;;;2.47;2.20;;;18.70;99.90;;;-141.84;62.37;21049.72;5013373;28;20226;-66
2023/08/30 09:05:48;;;;;;;3.15;2.13;;;18.80;99.90;;;-141.84;62.81;21059.88;4993702;28;20212;-65
2023/08/30 09:08:17;;;;;;;3.00;2.65;;;18.80;99.90;;;-141.84;62.94;21059.88;5017609;28;20316;-67
2023/08/30 09:10:49;;;;;;;3.22;2.40;;;18.80;99.90;;;-141.84;63.40;21065.97;5012905;28;20234;-62
2023/08/30 09:13:18;;;;;;;3.28;2.30;;;18.80;99.90;;;-141.84;62.09;21129.00;5016280;28;20765;-67
2023/08/30 09:15:46;;;;;;;4.68;2.25;;;19.00;99.90;;;-141.84;62.30;21133.06;5012312;28;20222;-67
2023/08/30 09:18:17;;;;;;;2.38;1.83;;;19.00;99.90;;;-141.84;61.05;21135.09;4995119;28;20353;-62
2023/08/30 09:20:48;;;;;;;1.73;1.63;;;19.10;99.90;;;-141.84;60.36;21173.72;5013025;28;20210;-63
2023/08/30 09:23:20;;;;;;;2.70;2.20;;;19.10;99.90;;;-141.84;60.20;21181.84;5026082;28;20233;-63
2023/08/30 09:25:54;;;;;;;2.35;2.00;;;19.20;99.90;;;-141.84;59.03;21253.00;5016723;28;20222;-66
2023/08/30 09:28:23;;;;;;;2.40;2.20;;;19.30;99.90;;;-141.84;57.95;21259.13;5020252;28;20313;-63
2023/08/30 09:30:52;;;;;;;2.38;2.03;;;19.30;99.90;;;-141.84;57.64;21253.00;5017977;28;20321;-65
2023/08/30 09:33:22;;;;;;;4.03;2.10;;;19.40;99.90;;;-141.84;56.33;21297.75;5012612;28;20309;-63
2023/08/30 09:35:52;;;;;;;2.28;2.08;;;19.30;99.90;;;-141.84;56.06;21309.94;5020319;28;20234;-65
2023/08/30 09:38:20;;;;;;;2.13;1.92;;;19.40;99.90;;;-141.84;56.42;21279.44;5020860;28;20209;-68
2023/08/30 09:40:48;;;;;;;2.20;2.00;;;19.30;99.90;;;-141.84;57.26;21297.75;5008701;28;20233;-64
2023/08/30 09:43:23;;;;;;;2.50;2.30;;;19.40;99.90;;;-141.84;56.89;21322.13;5020805;28;20332;-64
2023/08/30 09:45:52;;;;;;;2.50;2.30;;;19.40;99.90;;;-141.84;57.50;21330.28;5017237;28;20256;-62
2023/08/30 09:48:22;;;;;;;2.95;2.45;;;19.40;99.90;;;-141.84;57.87;21287.56;5017986;28;20235;-62
2023/08/30 09:50:55;;;;;;;2.50;2.30;;;19.40;99.90;;;-141.84;58.00;21250.97;5009584;28;20244;-62
2023/08/30 09:53:27;;;;;;;4.53;2.47;;;19.30;99.90;;;-141.84;57.22;21259.13;5019309;28;20206;-62
2023/08/30 09:55:57;;;;;;;3.35;2.47;;;19.20;99.90;;;-141.84;57.30;21220.47;5013616;28;20222;-63
2023/08/30 09:58:28;;;;;;;2.85;2.40;;;19.10;99.90;;;-141.84;58.40;21232.69;5016168;28;20591;-62
2023/08/30 10:00:57;;;;;;;2.25;2.05;;;19.10;99.90;;;-141.84;57.49;21257.09;5018343;28;20317;-63
2023/08/30 10:03:26;;;;;;;3.10;2.80;;;19.20;99.90;;;-141.84;55.40;21330.28;5014812;28;20662;-62
2023/08/30 10:06:05;;;;;;;3.53;2.38;;;19.40;99.90;;;-141.84;54.88;21368.91;5015760;28;20206;-63
2023/08/30 10:08:36;;;;;;;3.00;2.80;;;19.50;99.90;;;-141.84;54.21;21446.16;5015982;28;20198;-64
2023/08/30 10:11:06;;;;;;;3.28;2.97;;;19.60;99.90;;;-141.84;54.41;21423.81;5012979;28;20222;-66
2023/08/30 10:13:40;;;;;;;2.90;2.70;;;19.70;99.90;;;-141.84;54.86;21452.25;5008248;28;20258;-66